createdAt,value
2022-12-20T00:04:32.887Z,1.60
2022-12-20T00:09:39.196Z,2.10
2022-12-20T00:14:42.374Z,2.10
2022-12-20T00:19:45.966Z,2.30
2022-12-20T00:24:49.133Z,2.40
2022-12-20T00:29:52.454Z,2.50
2022-12-20T00:34:55.505Z,2.50
2022-12-20T00:39:58.721Z,2.60
2022-12-20T00:45:03.177Z,2.70
2022-12-20T00:50:07.063Z,2.60
2022-12-20T00:55:10.303Z,2.60
2022-12-20T01:00:13.853Z,2.50
2022-12-20T01:05:29.293Z,2.50
2022-12-20T01:10:32.899Z,2.60
2022-12-20T01:15:35.946Z,2.70
2022-12-20T01:20:39.002Z,2.80
2022-12-20T01:25:42.209Z,2.90
2022-12-20T01:30:45.334Z,2.90
2022-12-20T01:36:27.112Z,2.90
2022-12-20T01:42:06.327Z,2.90
2022-12-20T01:47:20.368Z,3.10
2022-12-20T01:53:04.843Z,3.10
2022-12-20T01:58:26.474Z,3.10
2022-12-20T02:04:04.612Z,3.10
2022-12-20T02:09:34.577Z,3.20
2022-12-20T02:14:44.386Z,3.20
2022-12-20T02:19:59.680Z,3.20
2022-12-20T02:25:24.227Z,3.20
2022-12-20T02:30:34.207Z,3.30
2022-12-20T02:35:39.036Z,3.40
2022-12-20T02:40:45.165Z,3.50
2022-12-20T02:45:55.278Z,3.50
2022-12-20T02:51:10.363Z,3.50
2022-12-20T03:02:24.764Z,3.50
2022-12-20T03:07:35.204Z,3.50
2022-12-20T03:12:47.119Z,3.50
2022-12-20T03:18:00.811Z,3.60
2022-12-20T03:23:08.000Z,3.60
2022-12-20T03:28:19.959Z,3.60
2022-12-20T03:33:33.395Z,3.50
2022-12-20T03:39:03.721Z,3.60
2022-12-20T03:44:19.630Z,3.60
2022-12-20T03:49:28.118Z,3.60
2022-12-20T03:54:34.716Z,3.40
2022-12-20T03:59:46.367Z,3.20
2022-12-20T04:05:01.641Z,3.20
2022-12-20T04:10:08.291Z,3.20
2022-12-20T04:15:11.859Z,3.20
2022-12-20T04:20:20.828Z,3.30
2022-12-20T04:25:31.022Z,3.30
2022-12-20T04:30:34.316Z,3.30
2022-12-20T04:35:38.851Z,3.40
2022-12-20T04:40:43.927Z,3.40
2022-12-20T04:46:11.805Z,3.40
2022-12-20T04:51:34.741Z,3.50
2022-12-20T04:56:48.622Z,3.60
2022-12-20T05:02:08.949Z,3.60
2022-12-20T05:07:39.681Z,3.60
2022-12-20T05:12:45.289Z,3.70
2022-12-20T05:18:02.532Z,3.70
2022-12-20T05:24:17.830Z,3.80
2022-12-20T05:29:49.688Z,3.80
2022-12-20T05:34:53.482Z,3.70
2022-12-20T05:39:56.810Z,3.70
2022-12-20T05:45:03.831Z,3.70
2022-12-20T05:50:18.283Z,3.80
2022-12-20T05:55:48.484Z,3.80
2022-12-20T06:00:52.035Z,3.80
2022-12-20T06:06:15.433Z,3.70
2022-12-20T06:11:29.953Z,3.80
2022-12-20T06:16:47.822Z,3.80
2022-12-20T06:22:26.543Z,3.60
2022-12-20T06:27:50.219Z,3.70
2022-12-20T06:33:11.501Z,3.60
2022-12-20T06:38:31.745Z,3.60
2022-12-20T06:43:39.984Z,3.60
2022-12-20T06:49:02.015Z,3.50
2022-12-20T06:54:11.873Z,3.60
2022-12-20T06:59:23.167Z,3.70
2022-12-20T07:04:34.260Z,3.60
2022-12-20T07:09:44.276Z,3.70
2022-12-20T07:14:47.435Z,3.80
2022-12-20T07:19:51.196Z,3.80
2022-12-20T07:24:54.516Z,3.80
2022-12-20T07:29:57.572Z,3.80
2022-12-20T07:35:01.805Z,3.80
2022-12-20T07:40:05.937Z,3.80
2022-12-20T07:45:09.544Z,3.70
2022-12-20T07:50:12.650Z,3.70
2022-12-20T07:55:16.007Z,3.80
2022-12-20T08:00:19.538Z,3.80
2022-12-20T08:05:34.123Z,3.90
2022-12-20T08:10:47.392Z,3.90
2022-12-20T08:21:41.581Z,3.90
2022-12-20T08:27:02.715Z,4.00
2022-12-20T08:32:47.276Z,4.10
2022-12-20T08:37:53.050Z,4.20
2022-12-20T08:43:10.633Z,4.20
2022-12-20T08:48:33.253Z,4.20
2022-12-20T08:53:43.997Z,4.20
2022-12-20T08:58:59.553Z,4.30
2022-12-20T09:04:30.635Z,4.30
2022-12-20T09:09:34.641Z,4.30
2022-12-20T09:14:38.844Z,4.40
2022-12-20T09:19:41.863Z,4.30
2022-12-20T09:24:44.837Z,4.40
2022-12-20T09:29:47.871Z,4.40
2022-12-20T09:34:50.844Z,4.50
2022-12-20T09:39:53.819Z,4.60
2022-12-20T09:45:08.651Z,4.60
2022-12-20T09:50:17.917Z,4.70
2022-12-20T09:55:36.522Z,4.60
2022-12-20T10:00:53.975Z,4.50
2022-12-20T10:06:39.854Z,4.60
2022-12-20T10:12:05.854Z,4.70
2022-12-20T10:17:44.971Z,4.80
2022-12-20T10:23:09.355Z,4.80
2022-12-20T10:28:39.950Z,4.90
2022-12-20T10:33:45.248Z,4.80
2022-12-20T10:39:11.457Z,4.90
2022-12-20T10:44:24.991Z,5.00
2022-12-20T10:49:31.459Z,5.10
2022-12-20T10:54:39.852Z,5.20
2022-12-20T10:59:52.034Z,5.20
2022-12-20T11:05:29.637Z,5.30
2022-12-20T11:10:42.481Z,5.40
2022-12-20T11:22:06.426Z,5.70
2022-12-20T11:27:35.342Z,5.90
2022-12-20T11:33:24.313Z,5.90
2022-12-20T11:38:53.246Z,6.00
2022-12-20T11:44:53.953Z,6.10
2022-12-20T11:50:28.483Z,6.20
2022-12-20T11:55:37.677Z,6.20
2022-12-20T12:00:46.612Z,6.20
2022-12-20T12:06:30.059Z,6.20
2022-12-20T12:18:01.819Z,6.50
2022-12-20T12:23:53.262Z,6.50
2022-12-20T12:29:09.089Z,6.50
2022-12-20T12:34:30.008Z,6.50
2022-12-20T12:39:49.473Z,6.50
2022-12-20T12:44:59.924Z,6.50
2022-12-20T12:50:03.722Z,6.30
2022-12-20T12:55:35.997Z,6.40
2022-12-20T13:01:00.678Z,6.30
2022-12-20T13:06:45.557Z,6.20
2022-12-20T13:12:25.533Z,6.20
2022-12-20T13:17:59.038Z,6.30
2022-12-20T13:23:23.950Z,6.40
2022-12-20T13:28:42.306Z,6.40
2022-12-20T13:34:05.366Z,6.50
2022-12-20T13:39:25.588Z,6.50
2022-12-20T13:44:54.963Z,6.40
2022-12-20T13:50:02.307Z,6.30
2022-12-20T13:55:17.255Z,6.30
2022-12-20T14:00:28.707Z,6.10
2022-12-20T14:05:49.299Z,6.10
2022-12-20T14:11:24.205Z,6.00
2022-12-20T14:16:46.192Z,6.00
2022-12-20T14:22:10.193Z,5.80
2022-12-20T14:27:25.298Z,5.70
2022-12-20T14:32:50.348Z,5.70
2022-12-20T14:38:09.934Z,5.50
2022-12-20T14:43:34.936Z,5.40
2022-12-20T14:48:39.625Z,5.50
2022-12-20T14:53:59.628Z,5.50
2022-12-20T14:59:19.935Z,5.50
2022-12-20T15:04:49.109Z,5.50
2022-12-20T15:10:01.612Z,5.50
2022-12-20T15:15:27.753Z,5.40
2022-12-20T15:20:28.016Z,5.40
2022-12-20T15:25:42.712Z,5.20
2022-12-20T15:30:52.582Z,5.20
2022-12-20T15:36:23.998Z,5.10
2022-12-20T15:41:33.945Z,5.10
2022-12-20T15:46:37.167Z,4.90
2022-12-20T15:51:50.770Z,5.00
2022-12-20T15:57:22.326Z,5.00
2022-12-20T16:02:45.482Z,5.00
2022-12-20T16:07:50.577Z,4.90
2022-12-20T16:13:00.724Z,4.90
2022-12-20T16:18:12.656Z,4.90
2022-12-20T16:23:29.052Z,4.80
2022-12-20T16:28:52.936Z,4.80
2022-12-20T16:34:20.867Z,4.80
2022-12-20T16:39:26.894Z,4.80
2022-12-20T16:44:30.112Z,4.80
2022-12-20T16:49:33.073Z,4.80
2022-12-20T16:54:36.563Z,4.70
2022-12-20T16:59:39.607Z,4.80
2022-12-20T17:05:04.379Z,4.80
2022-12-20T17:10:17.968Z,4.80
2022-12-20T17:15:28.549Z,4.90
2022-12-20T17:20:36.678Z,4.80
2022-12-20T17:25:40.440Z,4.70
2022-12-20T17:30:43.501Z,5.00
2022-12-20T17:35:47.408Z,5.00
2022-12-20T17:41:30.480Z,4.90
2022-12-20T17:47:07.510Z,4.70
2022-12-20T17:52:27.328Z,4.80
2022-12-20T17:57:50.908Z,4.90
2022-12-20T18:03:02.898Z,4.90
2022-12-20T18:08:06.233Z,4.90
2022-12-20T18:13:22.813Z,5.00
2022-12-20T18:18:36.845Z,4.80
2022-12-20T18:23:59.027Z,4.90
2022-12-20T18:29:09.757Z,4.90
2022-12-20T18:34:20.276Z,4.90
2022-12-20T18:39:28.515Z,4.80
2022-12-20T18:44:36.031Z,4.90
2022-12-20T18:49:39.159Z,4.90
2022-12-20T18:54:42.195Z,4.90
2022-12-20T18:59:45.202Z,5.00
2022-12-20T19:04:51.143Z,5.00
2022-12-20T19:09:54.454Z,4.90
2022-12-20T19:14:57.605Z,4.90
2022-12-20T19:20:00.682Z,4.90
2022-12-20T19:25:03.785Z,4.90
2022-12-20T19:30:07.641Z,4.60
2022-12-20T19:35:45.209Z,4.30
2022-12-20T19:40:33.996Z,4.40
2022-12-20T19:45:40.236Z,4.50
2022-12-20T19:50:43.238Z,4.50
2022-12-20T19:56:06.802Z,4.50
2022-12-20T20:01:21.503Z,4.60
2022-12-20T20:06:47.353Z,4.50
2022-12-20T20:11:51.797Z,4.60
2022-12-20T20:17:02.948Z,4.50
2022-12-20T20:22:23.046Z,4.60
2022-12-20T20:27:39.479Z,4.70
2022-12-20T20:33:01.149Z,4.80
2022-12-20T20:38:35.051Z,4.90
2022-12-20T20:43:56.187Z,4.80
2022-12-20T20:49:07.573Z,4.80
2022-12-20T20:54:17.374Z,4.80
2022-12-20T20:59:26.180Z,4.80
2022-12-20T21:05:47.244Z,4.80
2022-12-20T21:10:19.239Z,4.80
2022-12-20T21:15:24.341Z,4.90
2022-12-20T21:20:28.196Z,5.00
2022-12-20T21:25:31.432Z,5.00
2022-12-20T21:30:35.091Z,4.90
2022-12-20T21:35:38.047Z,5.00
2022-12-20T21:40:41.172Z,4.90
2022-12-20T21:45:44.331Z,4.90
2022-12-20T21:51:24.009Z,4.80
2022-12-20T21:57:01.881Z,4.80
2022-12-20T22:02:14.689Z,4.80
2022-12-20T22:07:24.134Z,4.80
2022-12-20T22:12:47.593Z,4.80
2022-12-20T22:18:11.167Z,5.00
2022-12-20T22:23:39.200Z,4.90
2022-12-20T22:29:10.808Z,5.00
2022-12-20T22:34:19.288Z,5.00
2022-12-20T22:39:28.169Z,5.00
2022-12-20T22:44:31.507Z,5.10
2022-12-20T22:49:34.552Z,5.00
2022-12-20T22:54:37.624Z,5.00
2022-12-20T22:59:40.827Z,5.00
2022-12-20T23:04:53.877Z,5.10
2022-12-20T23:10:04.357Z,5.10
2022-12-20T23:15:31.938Z,5.20
2022-12-20T23:20:58.362Z,5.20
2022-12-20T23:26:30.336Z,5.20
2022-12-20T23:32:00.589Z,5.20
2022-12-20T23:37:22.351Z,5.30
2022-12-20T23:42:56.253Z,5.30
2022-12-20T23:48:15.774Z,5.30
2022-12-20T23:53:36.668Z,5.40
2022-12-20T23:58:49.025Z,5.50
